REH552 KMFR-KLAS
Flight info
| Callsign | REH552 |
|---|---|
| Flight time | N/A |
| Altitude | 41000 |
| Route | JKSN1 OED LANKS FMG J92 OAL TQILA COKTL4 |
| Aircraft | LJ35/M-SGHRWXY/SB1 |
Departure
| Time | 2026-04-20 11:22 |
|---|---|
| Airport | Rogue Valley International-Medford Airport (KMFR) |
Arrival
| Time | N/A |
|---|---|
| Airport | Harry Reid International Airport (KLAS) |
| Time | Latitude | Longitude | Altitude | Speed | Heading |
|---|---|---|---|---|---|
| 2026-04-20 11:10 | 42.36874 | -122.87262 | 1338 ft | 0 kts | 249° |
| 2026-04-20 11:15 | 42.36875 | -122.87259 | 1338 ft | 1 kts | 252° |
| 2026-04-20 11:16 | 42.36876 | -122.87238 | 1338 ft | 3 kts | 281° |
| 2026-04-20 11:16 | 42.36868 | -122.87215 | 1338 ft | 3 kts | 311° |
| 2026-04-20 11:16 | 42.36851 | -122.87199 | 1338 ft | 3 kts | 336° |
| 2026-04-20 11:16 | 42.36837 | -122.87192 | 1338 ft | 0 kts | 339° |
| 2026-04-20 11:17 | 42.36845 | -122.87190 | 1338 ft | 3 kts | 34° |
| 2026-04-20 11:17 | 42.36846 | -122.87160 | 1338 ft | 4 kts | 101° |
| 2026-04-20 11:17 | 42.36841 | -122.87110 | 1338 ft | 7 kts | 98° |
| 2026-04-20 11:17 | 42.36805 | -122.87065 | 1338 ft | 9 kts | 162° |
| 2026-04-20 11:18 | 42.36740 | -122.87034 | 1338 ft | 11 kts | 160° |
| 2026-04-20 11:18 | 42.36660 | -122.86992 | 1338 ft | 14 kts | 159° |
| 2026-04-20 11:18 | 42.36566 | -122.86943 | 1338 ft | 14 kts | 159° |
| 2026-04-20 11:18 | 42.36479 | -122.86898 | 1338 ft | 13 kts | 159° |
| 2026-04-20 11:19 | 42.36402 | -122.86858 | 1338 ft | 11 kts | 157° |
| 2026-04-20 11:19 | 42.36379 | -122.86821 | 1338 ft | 0 kts | 82° |
| 2026-04-20 11:21 | 42.36380 | -122.86814 | 1338 ft | 2 kts | 76° |
| 2026-04-20 11:21 | 42.36392 | -122.86779 | 1338 ft | 6 kts | 49° |
| 2026-04-20 11:21 | 42.36440 | -122.86776 | 1338 ft | 9 kts | 339° |
| 2026-04-20 11:21 | 42.36812 | -122.86971 | 1338 ft | 108 kts | 337° |
| 2026-04-20 11:22 | 42.37783 | -122.87482 | 1346 ft | 186 kts | 338° |
| 2026-04-20 11:22 | 42.39149 | -122.88148 | 1735 ft | 229 kts | 340° |
| 2026-04-20 11:22 | 42.40738 | -122.88949 | 2315 ft | 243 kts | 338° |
| 2026-04-20 11:22 | 42.42225 | -122.89713 | 2749 ft | 216 kts | 337° |
| 2026-04-20 11:23 | 42.43606 | -122.90308 | 2988 ft | 203 kts | 348° |
| 2026-04-20 11:23 | 42.44964 | -122.90367 | 3238 ft | 193 kts | 4° |
| 2026-04-20 11:23 | 42.46226 | -122.89862 | 3390 ft | 190 kts | 30° |
| 2026-04-20 11:23 | 42.47202 | -122.88675 | 3532 ft | 188 kts | 53° |
| 2026-04-20 11:24 | 42.47674 | -122.87090 | 3761 ft | 181 kts | 82° |
| 2026-04-20 11:24 | 42.47585 | -122.85390 | 3909 ft | 178 kts | 105° |
| 2026-04-20 11:24 | 42.47118 | -122.83867 | 4105 ft | 173 kts | 120° |
| 2026-04-20 11:24 | 42.46416 | -122.82569 | 4447 ft | 170 kts | 130° |
| 2026-04-20 11:25 | 42.45663 | -122.81345 | 4774 ft | 170 kts | 131° |
| 2026-04-20 11:25 | 42.44867 | -122.80156 | 5042 ft | 172 kts | 134° |
| 2026-04-20 11:25 | 42.44013 | -122.79006 | 5356 ft | 172 kts | 134° |
| 2026-04-20 11:25 | 42.43289 | -122.77726 | 5681 ft | 171 kts | 124° |
| 2026-04-20 11:26 | 42.42670 | -122.76367 | 6002 ft | 169 kts | 121° |
| 2026-04-20 11:26 | 42.42094 | -122.74997 | 6320 ft | 166 kts | 120° |
| 2026-04-20 11:26 | 42.41517 | -122.73586 | 6668 ft | 180 kts | 119° |
| 2026-04-20 11:26 | 42.40892 | -122.72027 | 7026 ft | 197 kts | 118° |
| 2026-04-20 11:27 | 42.40223 | -122.70324 | 7377 ft | 213 kts | 118° |
| 2026-04-20 11:27 | 42.39506 | -122.68490 | 7722 ft | 228 kts | 118° |
| 2026-04-20 11:27 | 42.38742 | -122.66534 | 8063 ft | 241 kts | 118° |
| 2026-04-20 11:27 | 42.37944 | -122.64485 | 8399 ft | 252 kts | 118° |
| 2026-04-20 11:28 | 42.37007 | -122.62437 | 8732 ft | 260 kts | 127° |
| 2026-04-20 11:28 | 42.35818 | -122.60553 | 9064 ft | 267 kts | 134° |
| 2026-04-20 11:28 | 42.34476 | -122.58784 | 9394 ft | 272 kts | 138° |
| 2026-04-20 11:28 | 42.33042 | -122.57082 | 9726 ft | 276 kts | 140° |
| 2026-04-20 11:29 | 42.31558 | -122.55413 | 10054 ft | 279 kts | 141° |
| 2026-04-20 11:29 | 42.30057 | -122.53784 | 10376 ft | 281 kts | 141° |
| 2026-04-20 11:29 | 42.28531 | -122.52126 | 10702 ft | 282 kts | 141° |
| 2026-04-20 11:29 | 42.26998 | -122.50446 | 11029 ft | 283 kts | 141° |
| 2026-04-20 11:30 | 42.25470 | -122.48767 | 11355 ft | 283 kts | 141° |
| 2026-04-20 11:30 | 42.23940 | -122.47084 | 11679 ft | 283 kts | 141° |
| 2026-04-20 11:30 | 42.22412 | -122.45412 | 12004 ft | 283 kts | 141° |
| 2026-04-20 11:30 | 42.20870 | -122.43757 | 12329 ft | 282 kts | 141° |
| 2026-04-20 11:31 | 42.19331 | -122.42118 | 12654 ft | 281 kts | 141° |
| 2026-04-20 11:31 | 42.17798 | -122.40489 | 12978 ft | 280 kts | 141° |
| 2026-04-20 11:31 | 42.16274 | -122.38852 | 13303 ft | 279 kts | 141° |
| 2026-04-20 11:31 | 42.14770 | -122.37212 | 13627 ft | 277 kts | 140° |
| 2026-04-20 11:32 | 42.13276 | -122.35577 | 13951 ft | 276 kts | 140° |
| 2026-04-20 11:32 | 42.11791 | -122.33950 | 14275 ft | 274 kts | 140° |
| 2026-04-20 11:32 | 42.10316 | -122.32334 | 14599 ft | 273 kts | 140° |
| 2026-04-20 11:32 | 42.08791 | -122.30658 | 14935 ft | 293 kts | 140° |
| 2026-04-20 11:33 | 42.07182 | -122.28905 | 15269 ft | 308 kts | 141° |
| 2026-04-20 11:33 | 42.05519 | -122.27095 | 15596 ft | 307 kts | 140° |
| 2026-04-20 11:33 | 42.03857 | -122.25288 | 15922 ft | 307 kts | 141° |
| 2026-04-20 11:33 | 42.02196 | -122.23480 | 16248 ft | 308 kts | 141° |
| 2026-04-20 11:34 | 42.00530 | -122.21672 | 16573 ft | 307 kts | 140° |
| 2026-04-20 11:34 | 41.98871 | -122.19866 | 16898 ft | 307 kts | 141° |
| 2026-04-20 11:34 | 41.97215 | -122.18077 | 17222 ft | 305 kts | 141° |
| 2026-04-20 11:34 | 41.95567 | -122.16281 | 17547 ft | 304 kts | 141° |
| 2026-04-20 11:35 | 41.93928 | -122.14508 | 17871 ft | 302 kts | 141° |
| 2026-04-20 11:35 | 41.92289 | -122.12742 | 18196 ft | 301 kts | 141° |
| 2026-04-20 11:35 | 41.90670 | -122.10981 | 18520 ft | 299 kts | 141° |
| 2026-04-20 11:35 | 41.89072 | -122.09251 | 18840 ft | 299 kts | 141° |
| 2026-04-20 11:36 | 41.87429 | -122.07475 | 19169 ft | 302 kts | 141° |
| 2026-04-20 11:36 | 41.85779 | -122.05690 | 19498 ft | 306 kts | 141° |
| 2026-04-20 11:36 | 41.84132 | -122.03907 | 19822 ft | 308 kts | 141° |
| 2026-04-20 11:36 | 41.82456 | -122.02089 | 20149 ft | 310 kts | 141° |
| 2026-04-20 11:37 | 41.80767 | -122.00253 | 20476 ft | 315 kts | 141° |
| 2026-04-20 11:37 | 41.77320 | -121.96505 | 21131 ft | 325 kts | 141° |
| 2026-04-20 11:37 | 41.75532 | -121.94593 | 21461 ft | 333 kts | 141° |
| 2026-04-20 11:38 | 41.73698 | -121.92640 | 21791 ft | 339 kts | 141° |
| 2026-04-20 11:38 | 41.71839 | -121.90663 | 22119 ft | 344 kts | 141° |
| 2026-04-20 11:38 | 41.69957 | -121.88658 | 22447 ft | 348 kts | 141° |
| 2026-04-20 11:38 | 41.68056 | -121.86629 | 22774 ft | 351 kts | 141° |
| 2026-04-20 11:39 | 41.66144 | -121.84583 | 23100 ft | 353 kts | 141° |
| 2026-04-20 11:39 | 41.64222 | -121.82520 | 23427 ft | 355 kts | 141° |
| 2026-04-20 11:39 | 41.62295 | -121.80445 | 23753 ft | 356 kts | 141° |
| 2026-04-20 11:39 | 41.60369 | -121.78364 | 24079 ft | 357 kts | 141° |
| 2026-04-20 11:40 | 41.58466 | -121.76301 | 24400 ft | 357 kts | 141° |
| 2026-04-20 11:40 | 41.56539 | -121.74211 | 24726 ft | 356 kts | 141° |
| 2026-04-20 11:40 | 41.54614 | -121.72125 | 25051 ft | 356 kts | 141° |
| 2026-04-20 11:40 | 41.52683 | -121.70067 | 25376 ft | 357 kts | 141° |
| 2026-04-20 11:41 | 41.50715 | -121.67991 | 25704 ft | 363 kts | 142° |
| 2026-04-20 11:41 | 41.48723 | -121.65873 | 26032 ft | 368 kts | 141° |
| 2026-04-20 11:41 | 41.46716 | -121.63731 | 26359 ft | 372 kts | 141° |
| 2026-04-20 11:41 | 41.44677 | -121.61578 | 26687 ft | 375 kts | 141° |
| 2026-04-20 11:42 | 41.42634 | -121.59402 | 27013 ft | 377 kts | 141° |
| 2026-04-20 11:42 | 41.40580 | -121.57221 | 27339 ft | 379 kts | 141° |
| 2026-04-20 11:42 | 41.38508 | -121.55038 | 27666 ft | 380 kts | 141° |
| 2026-04-20 11:42 | 41.36439 | -121.52840 | 27991 ft | 381 kts | 141° |
| 2026-04-20 11:43 | 41.34367 | -121.50650 | 28316 ft | 381 kts | 141° |
| 2026-04-20 11:43 | 41.32287 | -121.48461 | 28642 ft | 381 kts | 141° |
| 2026-04-20 11:43 | 41.30217 | -121.46267 | 28966 ft | 381 kts | 141° |
| 2026-04-20 11:43 | 41.28144 | -121.44076 | 29291 ft | 380 kts | 141° |
| 2026-04-20 11:44 | 41.26070 | -121.41893 | 29616 ft | 380 kts | 141° |
| 2026-04-20 11:44 | 41.24003 | -121.39721 | 29941 ft | 379 kts | 141° |
| 2026-04-20 11:44 | 41.21939 | -121.37554 | 30265 ft | 377 kts | 141° |
| 2026-04-20 11:44 | 41.19907 | -121.35424 | 30584 ft | 377 kts | 142° |
| 2026-04-20 11:45 | 41.17860 | -121.33272 | 30907 ft | 376 kts | 141° |
| 2026-04-20 11:45 | 41.15809 | -121.31106 | 31232 ft | 377 kts | 142° |
| 2026-04-20 11:45 | 41.13734 | -121.28926 | 31558 ft | 382 kts | 142° |
| 2026-04-20 11:45 | 41.11633 | -121.26714 | 31885 ft | 388 kts | 142° |
| 2026-04-20 11:46 | 41.09510 | -121.24467 | 32211 ft | 394 kts | 142° |
| 2026-04-20 11:46 | 41.07364 | -121.22178 | 32538 ft | 398 kts | 142° |
| 2026-04-20 11:46 | 41.05208 | -121.19859 | 32863 ft | 401 kts | 142° |
| 2026-04-20 11:46 | 41.03028 | -121.17526 | 33189 ft | 404 kts | 143° |
| 2026-04-20 11:47 | 41.00827 | -121.15180 | 33515 ft | 407 kts | 143° |
| 2026-04-20 11:47 | 40.98611 | -121.12821 | 33841 ft | 410 kts | 143° |
| 2026-04-20 11:47 | 40.96375 | -121.10463 | 34166 ft | 412 kts | 143° |
| 2026-04-20 11:47 | 40.94128 | -121.08103 | 34491 ft | 414 kts | 143° |
| 2026-04-20 11:48 | 40.91863 | -121.05723 | 34703 ft | 418 kts | 144° |
| 2026-04-20 11:48 | 40.89572 | -121.03310 | 34814 ft | 425 kts | 143° |
| 2026-04-20 11:48 | 40.84847 | -120.98382 | 34878 ft | 440 kts | 144° |
| 2026-04-20 11:49 | 40.79956 | -120.93344 | 34883 ft | 453 kts | 144° |
| 2026-04-20 11:49 | 40.74974 | -120.88174 | 34884 ft | 463 kts | 144° |
| 2026-04-20 11:50 | 40.69886 | -120.82899 | 35073 ft | 465 kts | 144° |
| 2026-04-20 11:50 | 40.67345 | -120.80255 | 35357 ft | 463 kts | 144° |
| 2026-04-20 11:50 | 40.64829 | -120.77627 | 35633 ft | 460 kts | 144° |
| 2026-04-20 11:51 | 40.62335 | -120.75016 | 35906 ft | 457 kts | 144° |
| 2026-04-20 11:51 | 40.59842 | -120.72430 | 36180 ft | 454 kts | 145° |
| 2026-04-20 11:51 | 40.57364 | -120.69873 | 36454 ft | 451 kts | 145° |
| 2026-04-20 11:51 | 40.54900 | -120.67329 | 36728 ft | 448 kts | 145° |
| 2026-04-20 11:52 | 40.52461 | -120.64804 | 37001 ft | 445 kts | 145° |
| 2026-04-20 11:52 | 40.50035 | -120.62285 | 37275 ft | 443 kts | 145° |
| 2026-04-20 11:52 | 40.47615 | -120.59801 | 37549 ft | 440 kts | 146° |
| 2026-04-20 11:52 | 40.45189 | -120.57363 | 37823 ft | 437 kts | 146° |
| 2026-04-20 11:53 | 40.42788 | -120.54942 | 38096 ft | 435 kts | 146° |
| 2026-04-20 11:53 | 40.40431 | -120.52544 | 38367 ft | 433 kts | 146° |
| 2026-04-20 11:53 | 40.38065 | -120.50124 | 38640 ft | 430 kts | 146° |
| 2026-04-20 11:53 | 40.35686 | -120.47676 | 38917 ft | 428 kts | 146° |
| 2026-04-20 11:54 | 40.33374 | -120.45304 | 39188 ft | 426 kts | 146° |
| 2026-04-20 11:54 | 40.31035 | -120.42929 | 39456 ft | 423 kts | 146° |
| 2026-04-20 11:54 | 40.28702 | -120.40571 | 39670 ft | 422 kts | 146° |
| 2026-04-20 11:54 | 40.26375 | -120.38224 | 39893 ft | 421 kts | 146° |
| 2026-04-20 11:55 | 40.24059 | -120.35882 | 40117 ft | 420 kts | 146° |
| 2026-04-20 11:55 | 40.21754 | -120.33536 | 40341 ft | 419 kts | 146° |
| 2026-04-20 11:55 | 40.19455 | -120.31203 | 40565 ft | 417 kts | 146° |
| 2026-04-20 11:55 | 40.17164 | -120.28878 | 40748 ft | 417 kts | 146° |
| 2026-04-20 11:56 | 40.14867 | -120.26547 | 40854 ft | 419 kts | 146° |
| 2026-04-20 11:56 | 40.12588 | -120.24234 | 40896 ft | 422 kts | 146° |
| 2026-04-20 11:56 | 40.07889 | -120.19460 | 40908 ft | 429 kts | 146° |
| 2026-04-20 11:57 | 40.03161 | -120.14669 | 40911 ft | 435 kts | 146° |
| 2026-04-20 11:57 | 39.98322 | -120.09837 | 40913 ft | 441 kts | 146° |
| 2026-04-20 11:58 | 39.93431 | -120.04935 | 40915 ft | 445 kts | 147° |
| 2026-04-20 11:58 | 39.88502 | -119.99999 | 40917 ft | 449 kts | 146° |
| 2026-04-20 11:59 | 39.83512 | -119.95038 | 40918 ft | 452 kts | 146° |
| 2026-04-20 11:59 | 39.78508 | -119.90039 | 40919 ft | 455 kts | 146° |
| 2026-04-20 12:00 | 39.73457 | -119.85033 | 40920 ft | 457 kts | 147° |
| 2026-04-20 12:00 | 39.68373 | -119.80030 | 40921 ft | 459 kts | 147° |
| 2026-04-20 12:01 | 39.63323 | -119.74999 | 40921 ft | 461 kts | 146° |
| 2026-04-20 12:01 | 39.58225 | -119.69957 | 40919 ft | 459 kts | 147° |
| 2026-04-20 12:02 | 39.53231 | -119.64887 | 40914 ft | 455 kts | 144° |
| 2026-04-20 12:02 | 39.48583 | -119.59358 | 40912 ft | 452 kts | 140° |
| 2026-04-20 12:03 | 39.44189 | -119.53579 | 40911 ft | 449 kts | 139° |
| 2026-04-20 12:03 | 39.39852 | -119.47824 | 40867 ft | 446 kts | 140° |
| 2026-04-20 12:04 | 39.35454 | -119.42174 | 40688 ft | 446 kts | 140° |
| 2026-04-20 12:04 | 39.31013 | -119.36555 | 40570 ft | 446 kts | 141° |
| 2026-04-20 12:05 | 39.26600 | -119.30961 | 40566 ft | 443 kts | 141° |
| 2026-04-20 12:05 | 39.22192 | -119.25431 | 40462 ft | 443 kts | 141° |
| 2026-04-20 12:06 | 39.17800 | -119.19916 | 40342 ft | 443 kts | 141° |
| 2026-04-20 12:06 | 39.13384 | -119.14380 | 40334 ft | 441 kts | 141° |
| 2026-04-20 12:07 | 39.09006 | -119.08867 | 40277 ft | 440 kts | 141° |
| 2026-04-20 12:07 | 39.04632 | -119.03331 | 40170 ft | 441 kts | 141° |
| 2026-04-20 12:08 | 39.00978 | -118.98752 | 40102 ft | 440 kts | 142° |
| 2026-04-20 12:08 | 38.98771 | -118.96051 | 40282 ft | 435 kts | 142° |
| 2026-04-20 12:08 | 38.96603 | -118.93380 | 40458 ft | 430 kts | 142° |
| 2026-04-20 12:09 | 38.94450 | -118.90705 | 40632 ft | 429 kts | 142° |
| 2026-04-20 12:09 | 38.92305 | -118.88033 | 40776 ft | 431 kts | 142° |
| 2026-04-20 12:09 | 38.87973 | -118.82638 | 40891 ft | 437 kts | 142° |
| 2026-04-20 12:10 | 38.83551 | -118.77188 | 40900 ft | 445 kts | 142° |
| 2026-04-20 12:10 | 38.79058 | -118.71642 | 40903 ft | 451 kts | 142° |
| 2026-04-20 12:11 | 38.74507 | -118.66023 | 40902 ft | 457 kts | 142° |
| 2026-04-20 12:11 | 38.69891 | -118.60354 | 40898 ft | 462 kts | 142° |
| 2026-04-20 12:12 | 38.65236 | -118.54638 | 40898 ft | 466 kts | 142° |
| 2026-04-20 12:12 | 38.60583 | -118.48900 | 40899 ft | 467 kts | 142° |
| 2026-04-20 12:13 | 38.55922 | -118.43118 | 40899 ft | 466 kts | 142° |
| 2026-04-20 12:13 | 38.51263 | -118.37377 | 40899 ft | 465 kts | 143° |
| 2026-04-20 12:14 | 38.46597 | -118.31667 | 40899 ft | 464 kts | 143° |
| 2026-04-20 12:14 | 38.41944 | -118.25955 | 40898 ft | 464 kts | 143° |
| 2026-04-20 12:15 | 38.37293 | -118.20262 | 40898 ft | 463 kts | 143° |